sensor_id;sensor_type;location;lat;lon;timestamp;P1;durP1;ratioP1;P2;durP2;ratioP2
42866;SDS011;39461;40.948;73.006;2022-12-20T00:01:46;18.02;;;7.28;;
42866;SDS011;39461;40.948;73.006;2022-12-20T00:04:19;19.10;;;7.30;;
42866;SDS011;39461;40.948;73.006;2022-12-20T00:06:52;16.20;;;7.10;;
42866;SDS011;39461;40.948;73.006;2022-12-20T00:09:25;15.88;;;7.18;;
42866;SDS011;39461;40.948;73.006;2022-12-20T00:11:58;21.25;;;8.75;;
42866;SDS011;39461;40.948;73.006;2022-12-20T00:14:31;78.38;;;33.42;;
42866;SDS011;39461;40.948;73.006;2022-12-20T00:17:04;76.05;;;33.35;;
42866;SDS011;39461;40.948;73.006;2022-12-20T00:19:44;115.22;;;55.85;;
42866;SDS011;39461;40.948;73.006;2022-12-20T00:22:17;85.65;;;46.47;;
42866;SDS011;39461;40.948;73.006;2022-12-20T00:24:50;64.65;;;33.70;;
42866;SDS011;39461;40.948;73.006;2022-12-20T00:27:23;36.97;;;18.67;;
42866;SDS011;39461;40.948;73.006;2022-12-20T00:30:03;26.63;;;11.65;;
42866;SDS011;39461;40.948;73.006;2022-12-20T00:32:37;28.67;;;14.02;;
42866;SDS011;39461;40.948;73.006;2022-12-20T00:35:10;28.45;;;13.32;;
42866;SDS011;39461;40.948;73.006;2022-12-20T00:37:45;23.42;;;12.45;;
42866;SDS011;39461;40.948;73.006;2022-12-20T00:40:20;27.70;;;12.50;;
42866;SDS011;39461;40.948;73.006;2022-12-20T00:42:53;35.80;;;14.27;;
42866;SDS011;39461;40.948;73.006;2022-12-20T00:45:26;34.72;;;14.68;;
42866;SDS011;39461;40.948;73.006;2022-12-20T00:48:00;35.08;;;15.23;;
42866;SDS011;39461;40.948;73.006;2022-12-20T00:50:33;32.03;;;15.95;;
42866;SDS011;39461;40.948;73.006;2022-12-20T00:53:06;31.08;;;15.77;;
42866;SDS011;39461;40.948;73.006;2022-12-20T00:55:42;32.17;;;16.23;;
42866;SDS011;39461;40.948;73.006;2022-12-20T00:58:09;33.38;;;16.02;;
42866;SDS011;39461;40.948;73.006;2022-12-20T01:00:38;35.22;;;17.48;;
42866;SDS011;39461;40.948;73.006;2022-12-20T01:03:13;29.95;;;16.88;;
42866;SDS011;39461;40.948;73.006;2022-12-20T01:05:49;33.90;;;16.00;;
42866;SDS011;39461;40.948;73.006;2022-12-20T01:11:25;30.25;;;15.80;;
42866;SDS011;39461;40.948;73.006;2022-12-20T01:14:02;37.42;;;19.15;;
42866;SDS011;39461;40.948;73.006;2022-12-20T01:16:38;36.00;;;18.77;;
42866;SDS011;39461;40.948;73.006;2022-12-20T01:19:14;41.75;;;21.25;;
42866;SDS011;39461;40.948;73.006;2022-12-20T01:21:48;43.33;;;22.60;;
42866;SDS011;39461;40.948;73.006;2022-12-20T01:24:27;56.80;;;27.48;;
42866;SDS011;39461;40.948;73.006;2022-12-20T01:27:01;52.28;;;28.80;;
42866;SDS011;39461;40.948;73.006;2022-12-20T01:29:34;50.17;;;27.13;;
42866;SDS011;39461;40.948;73.006;2022-12-20T01:32:07;58.97;;;29.05;;
42866;SDS011;39461;40.948;73.006;2022-12-20T01:34:40;64.40;;;29.20;;
42866;SDS011;39461;40.948;73.006;2022-12-20T01:37:13;70.03;;;34.42;;
42866;SDS011;39461;40.948;73.006;2022-12-20T01:39:46;61.70;;;29.92;;
42866;SDS011;39461;40.948;73.006;2022-12-20T01:42:20;59.33;;;30.38;;
42866;SDS011;39461;40.948;73.006;2022-12-20T01:44:54;72.05;;;35.38;;
42866;SDS011;39461;40.948;73.006;2022-12-20T01:47:29;75.50;;;37.88;;
42866;SDS011;39461;40.948;73.006;2022-12-20T01:50:04;78.13;;;39.70;;
42866;SDS011;39461;40.948;73.006;2022-12-20T01:52:39;87.32;;;42.78;;
42866;SDS011;39461;40.948;73.006;2022-12-20T01:55:23;87.70;;;47.17;;
42866;SDS011;39461;40.948;73.006;2022-12-20T01:58:05;118.50;;;59.65;;
42866;SDS011;39461;40.948;73.006;2022-12-20T02:00:40;161.35;;;80.68;;
42866;SDS011;39461;40.948;73.006;2022-12-20T02:03:13;189.95;;;88.32;;
42866;SDS011;39461;40.948;73.006;2022-12-20T02:05:46;180.45;;;84.78;;
42866;SDS011;39461;40.948;73.006;2022-12-20T02:08:22;165.48;;;73.40;;
42866;SDS011;39461;40.948;73.006;2022-12-20T02:11:00;166.23;;;70.90;;
42866;SDS011;39461;40.948;73.006;2022-12-20T02:16:34;173.20;;;69.57;;
42866;SDS011;39461;40.948;73.006;2022-12-20T02:21:45;161.52;;;62.97;;
42866;SDS011;39461;40.948;73.006;2022-12-20T02:24:50;145.70;;;62.95;;
42866;SDS011;39461;40.948;73.006;2022-12-20T02:30:30;120.18;;;65.45;;
42866;SDS011;39461;40.948;73.006;2022-12-20T02:33:06;115.88;;;64.50;;
42866;SDS011;39461;40.948;73.006;2022-12-20T02:35:42;97.18;;;53.13;;
42866;SDS011;39461;40.948;73.006;2022-12-20T02:41:22;63.45;;;32.58;;
42866;SDS011;39461;40.948;73.006;2022-12-20T02:44:06;57.35;;;29.23;;
42866;SDS011;39461;40.948;73.006;2022-12-20T02:47:00;61.92;;;30.85;;
42866;SDS011;39461;40.948;73.006;2022-12-20T02:49:36;61.17;;;31.20;;
42866;SDS011;39461;40.948;73.006;2022-12-20T03:06:10;346.73;;;178.18;;
42866;SDS011;39461;40.948;73.006;2022-12-20T03:08:43;359.02;;;190.25;;
42866;SDS011;39461;40.948;73.006;2022-12-20T03:11:17;232.77;;;119.13;;
42866;SDS011;39461;40.948;73.006;2022-12-20T03:13:53;194.75;;;103.75;;
42866;SDS011;39461;40.948;73.006;2022-12-20T03:16:26;202.38;;;108.32;;
42866;SDS011;39461;40.948;73.006;2022-12-20T03:19:01;202.35;;;109.68;;
42866;SDS011;39461;40.948;73.006;2022-12-20T03:21:36;307.38;;;162.75;;
42866;SDS011;39461;40.948;73.006;2022-12-20T03:36:46;374.20;;;212.63;;
42866;SDS011;39461;40.948;73.006;2022-12-20T03:54:37;314.73;;;169.40;;
42866;SDS011;39461;40.948;73.006;2022-12-20T03:57:12;276.27;;;145.63;;
42866;SDS011;39461;40.948;73.006;2022-12-20T03:59:46;320.75;;;148.88;;
42866;SDS011;39461;40.948;73.006;2022-12-20T04:02:13;265.15;;;165.63;;
42866;SDS011;39461;40.948;73.006;2022-12-20T04:04:46;211.52;;;113.30;;
42866;SDS011;39461;40.948;73.006;2022-12-20T04:07:23;185.38;;;101.63;;
42866;SDS011;39461;40.948;73.006;2022-12-20T04:09:58;185.18;;;105.15;;
42866;SDS011;39461;40.948;73.006;2022-12-20T04:12:31;185.38;;;103.82;;
42866;SDS011;39461;40.948;73.006;2022-12-20T04:15:06;189.88;;;106.78;;
42866;SDS011;39461;40.948;73.006;2022-12-20T04:17:42;166.55;;;91.82;;
42866;SDS011;39461;40.948;73.006;2022-12-20T04:20:15;169.95;;;90.70;;
42866;SDS011;39461;40.948;73.006;2022-12-20T04:22:52;149.50;;;87.07;;
42866;SDS011;39461;40.948;73.006;2022-12-20T04:25:27;140.80;;;75.28;;
42866;SDS011;39461;40.948;73.006;2022-12-20T04:28:01;150.48;;;81.47;;
42866;SDS011;39461;40.948;73.006;2022-12-20T04:30:35;147.88;;;83.20;;
42866;SDS011;39461;40.948;73.006;2022-12-20T04:36:09;143.20;;;82.03;;
42866;SDS011;39461;40.948;73.006;2022-12-20T04:38:44;133.40;;;78.40;;
42866;SDS011;39461;40.948;73.006;2022-12-20T04:41:21;147.07;;;74.95;;
42866;SDS011;39461;40.948;73.006;2022-12-20T04:43:56;148.52;;;77.32;;
42866;SDS011;39461;40.948;73.006;2022-12-20T04:46:32;151.63;;;88.60;;
42866;SDS011;39461;40.948;73.006;2022-12-20T04:49:05;171.98;;;89.70;;
42866;SDS011;39461;40.948;73.006;2022-12-20T05:49:20;86.35;;;47.17;;
42866;SDS011;39461;40.948;73.006;2022-12-20T05:51:54;83.60;;;44.25;;
42866;SDS011;39461;40.948;73.006;2022-12-20T05:54:28;108.20;;;52.67;;
42866;SDS011;39461;40.948;73.006;2022-12-20T05:57:02;97.40;;;49.25;;
42866;SDS011;39461;40.948;73.006;2022-12-20T05:59:35;88.05;;;45.40;;
42866;SDS011;39461;40.948;73.006;2022-12-20T06:02:10;73.07;;;38.08;;
42866;SDS011;39461;40.948;73.006;2022-12-20T06:04:50;53.72;;;28.90;;
42866;SDS011;39461;40.948;73.006;2022-12-20T06:07:23;46.22;;;25.33;;
42866;SDS011;39461;40.948;73.006;2022-12-20T06:10:03;62.95;;;40.83;;
42866;SDS011;39461;40.948;73.006;2022-12-20T06:12:36;43.00;;;25.85;;
42866;SDS011;39461;40.948;73.006;2022-12-20T06:15:10;39.30;;;22.80;;
42866;SDS011;39461;40.948;73.006;2022-12-20T06:17:43;36.65;;;19.73;;
42866;SDS011;39461;40.948;73.006;2022-12-20T06:20:20;39.40;;;18.98;;
42866;SDS011;39461;40.948;73.006;2022-12-20T06:23:00;31.10;;;17.70;;
42866;SDS011;39461;40.948;73.006;2022-12-20T06:25:33;31.50;;;16.55;;
42866;SDS011;39461;40.948;73.006;2022-12-20T06:28:12;36.63;;;17.35;;
42866;SDS011;39461;40.948;73.006;2022-12-20T06:30:53;30.90;;;16.45;;
42866;SDS011;39461;40.948;73.006;2022-12-20T06:33:26;33.05;;;18.17;;
42866;SDS011;39461;40.948;73.006;2022-12-20T06:36:01;27.88;;;16.48;;
42866;SDS011;39461;40.948;73.006;2022-12-20T06:38:34;31.48;;;16.02;;
42866;SDS011;39461;40.948;73.006;2022-12-20T06:41:10;29.77;;;15.05;;
42866;SDS011;39461;40.948;73.006;2022-12-20T06:43:47;37.10;;;17.90;;
42866;SDS011;39461;40.948;73.006;2022-12-20T06:46:20;29.92;;;18.00;;
42866;SDS011;39461;40.948;73.006;2022-12-20T06:48:55;31.90;;;17.50;;
42866;SDS011;39461;40.948;73.006;2022-12-20T06:51:30;33.85;;;17.27;;
42866;SDS011;39461;40.948;73.006;2022-12-20T06:54:07;32.65;;;17.60;;
42866;SDS011;39461;40.948;73.006;2022-12-20T06:56:42;40.47;;;17.42;;
42866;SDS011;39461;40.948;73.006;2022-12-20T06:59:10;29.60;;;16.83;;
42866;SDS011;39461;40.948;73.006;2022-12-20T07:01:41;31.48;;;16.60;;
42866;SDS011;39461;40.948;73.006;2022-12-20T07:04:18;37.58;;;19.05;;
42866;SDS011;39461;40.948;73.006;2022-12-20T07:06:54;36.28;;;18.48;;
42866;SDS011;39461;40.948;73.006;2022-12-20T07:09:30;36.92;;;19.08;;
42866;SDS011;39461;40.948;73.006;2022-12-20T07:12:06;41.65;;;20.33;;
42866;SDS011;39461;40.948;73.006;2022-12-20T07:14:48;32.58;;;20.08;;
42866;SDS011;39461;40.948;73.006;2022-12-20T07:17:24;43.15;;;20.35;;
42866;SDS011;39461;40.948;73.006;2022-12-20T07:19:58;36.55;;;20.15;;
42866;SDS011;39461;40.948;73.006;2022-12-20T07:22:31;40.03;;;21.52;;
42866;SDS011;39461;40.948;73.006;2022-12-20T07:25:05;40.60;;;20.58;;
42866;SDS011;39461;40.948;73.006;2022-12-20T07:27:39;39.10;;;20.20;;
42866;SDS011;39461;40.948;73.006;2022-12-20T07:33:14;42.60;;;26.17;;
42866;SDS011;39461;40.948;73.006;2022-12-20T07:35:49;56.17;;;28.10;;
42866;SDS011;39461;40.948;73.006;2022-12-20T07:38:27;67.43;;;29.50;;
42866;SDS011;39461;40.948;73.006;2022-12-20T07:41:05;51.38;;;28.38;;
42866;SDS011;39461;40.948;73.006;2022-12-20T07:43:41;53.45;;;27.73;;
42866;SDS011;39461;40.948;73.006;2022-12-20T07:46:15;52.08;;;28.65;;
42866;SDS011;39461;40.948;73.006;2022-12-20T07:48:48;42.65;;;25.20;;
42866;SDS011;39461;40.948;73.006;2022-12-20T07:51:22;51.08;;;26.13;;
42866;SDS011;39461;40.948;73.006;2022-12-20T07:54:08;50.05;;;27.15;;
42866;SDS011;39461;40.948;73.006;2022-12-20T07:56:48;55.42;;;28.92;;
42866;SDS011;39461;40.948;73.006;2022-12-20T07:59:25;219.18;;;159.23;;
42866;SDS011;39461;40.948;73.006;2022-12-20T08:02:02;67.18;;;37.88;;
42866;SDS011;39461;40.948;73.006;2022-12-20T08:04:36;56.13;;;31.83;;
42866;SDS011;39461;40.948;73.006;2022-12-20T08:07:17;57.22;;;31.58;;
42866;SDS011;39461;40.948;73.006;2022-12-20T08:09:52;50.30;;;24.73;;
42866;SDS011;39461;40.948;73.006;2022-12-20T08:12:25;45.13;;;24.80;;
42866;SDS011;39461;40.948;73.006;2022-12-20T08:15:03;44.17;;;23.65;;
42866;SDS011;39461;40.948;73.006;2022-12-20T08:17:39;49.13;;;25.20;;
42866;SDS011;39461;40.948;73.006;2022-12-20T08:20:19;45.25;;;25.50;;
42866;SDS011;39461;40.948;73.006;2022-12-20T08:22:53;45.38;;;26.92;;
42866;SDS011;39461;40.948;73.006;2022-12-20T08:25:26;60.53;;;29.67;;
42866;SDS011;39461;40.948;73.006;2022-12-20T08:27:59;48.40;;;26.00;;
42866;SDS011;39461;40.948;73.006;2022-12-20T08:30:34;57.78;;;28.33;;
42866;SDS011;39461;40.948;73.006;2022-12-20T08:33:09;44.88;;;26.35;;
42866;SDS011;39461;40.948;73.006;2022-12-20T08:38:45;43.55;;;25.88;;
42866;SDS011;39461;40.948;73.006;2022-12-20T08:41:22;55.63;;;33.63;;
42866;SDS011;39461;40.948;73.006;2022-12-20T08:43:56;47.90;;;27.83;;
42866;SDS011;39461;40.948;73.006;2022-12-20T08:46:31;52.95;;;28.58;;
42866;SDS011;39461;40.948;73.006;2022-12-20T08:49:05;46.80;;;27.90;;
42866;SDS011;39461;40.948;73.006;2022-12-20T08:54:39;53.08;;;29.98;;
42866;SDS011;39461;40.948;73.006;2022-12-20T08:57:13;45.83;;;28.45;;
42866;SDS011;39461;40.948;73.006;2022-12-20T08:59:40;55.60;;;29.77;;
42866;SDS011;39461;40.948;73.006;2022-12-20T09:02:11;58.83;;;31.15;;
42866;SDS011;39461;40.948;73.006;2022-12-20T09:04:44;62.17;;;32.65;;
42866;SDS011;39461;40.948;73.006;2022-12-20T09:07:18;54.67;;;31.73;;
42866;SDS011;39461;40.948;73.006;2022-12-20T09:09:51;53.75;;;31.00;;
42866;SDS011;39461;40.948;73.006;2022-12-20T09:12:28;56.40;;;30.73;;
42866;SDS011;39461;40.948;73.006;2022-12-20T09:15:04;67.35;;;30.92;;
42866;SDS011;39461;40.948;73.006;2022-12-20T09:17:39;69.57;;;35.03;;
42866;SDS011;39461;40.948;73.006;2022-12-20T09:20:12;68.25;;;37.25;;
42866;SDS011;39461;40.948;73.006;2022-12-20T09:22:48;216.82;;;116.70;;
42866;SDS011;39461;40.948;73.006;2022-12-20T09:25:21;77.43;;;41.03;;
42866;SDS011;39461;40.948;73.006;2022-12-20T09:27:54;76.40;;;37.72;;
42866;SDS011;39461;40.948;73.006;2022-12-20T09:30:31;71.47;;;36.53;;
42866;SDS011;39461;40.948;73.006;2022-12-20T09:33:06;63.28;;;32.90;;
42866;SDS011;39461;40.948;73.006;2022-12-20T09:35:45;66.68;;;34.97;;
42866;SDS011;39461;40.948;73.006;2022-12-20T09:38:21;70.55;;;34.70;;
42866;SDS011;39461;40.948;73.006;2022-12-20T09:41:02;78.75;;;33.90;;
42866;SDS011;39461;40.948;73.006;2022-12-20T09:43:38;66.50;;;33.10;;
42866;SDS011;39461;40.948;73.006;2022-12-20T09:46:14;62.38;;;34.15;;
42866;SDS011;39461;40.948;73.006;2022-12-20T09:48:49;72.45;;;35.28;;
42866;SDS011;39461;40.948;73.006;2022-12-20T09:59:35;69.15;;;38.92;;
42866;SDS011;39461;40.948;73.006;2022-12-20T10:02:13;72.43;;;39.40;;
42866;SDS011;39461;40.948;73.006;2022-12-20T10:04:48;84.65;;;49.00;;
42866;SDS011;39461;40.948;73.006;2022-12-20T10:13:39;109.68;;;66.30;;
42866;SDS011;39461;40.948;73.006;2022-12-20T10:21:40;79.32;;;41.88;;
42866;SDS011;39461;40.948;73.006;2022-12-20T10:24:26;77.28;;;43.28;;
42866;SDS011;39461;40.948;73.006;2022-12-20T10:27:11;81.03;;;44.33;;
42866;SDS011;39461;40.948;73.006;2022-12-20T10:29:47;85.18;;;43.63;;
42866;SDS011;39461;40.948;73.006;2022-12-20T10:32:23;85.88;;;42.65;;
42866;SDS011;39461;40.948;73.006;2022-12-20T10:35:00;78.60;;;42.47;;
42866;SDS011;39461;40.948;73.006;2022-12-20T10:38:02;94.00;;;45.70;;
42866;SDS011;39461;40.948;73.006;2022-12-20T10:40:40;101.32;;;48.55;;
42866;SDS011;39461;40.948;73.006;2022-12-20T10:43:17;92.63;;;48.38;;
42866;SDS011;39461;40.948;73.006;2022-12-20T10:45:59;92.10;;;46.88;;
42866;SDS011;39461;40.948;73.006;2022-12-20T10:48:37;92.00;;;46.75;;
42866;SDS011;39461;40.948;73.006;2022-12-20T10:51:20;94.47;;;46.70;;
42866;SDS011;39461;40.948;73.006;2022-12-20T10:54:00;96.88;;;46.95;;
42866;SDS011;39461;40.948;73.006;2022-12-20T10:56:34;84.95;;;43.63;;
42866;SDS011;39461;40.948;73.006;2022-12-20T10:59:02;73.68;;;43.17;;
42866;SDS011;39461;40.948;73.006;2022-12-20T11:01:52;103.28;;;46.83;;
42866;SDS011;39461;40.948;73.006;2022-12-20T11:07:25;107.43;;;52.25;;
42866;SDS011;39461;40.948;73.006;2022-12-20T11:10:02;123.85;;;53.10;;
42866;SDS011;39461;40.948;73.006;2022-12-20T11:12:54;115.35;;;54.25;;
42866;SDS011;39461;40.948;73.006;2022-12-20T11:15:31;119.32;;;54.55;;
42866;SDS011;39461;40.948;73.006;2022-12-20T11:18:09;119.28;;;57.13;;
42866;SDS011;39461;40.948;73.006;2022-12-20T11:29:02;156.98;;;69.72;;
42866;SDS011;39461;40.948;73.006;2022-12-20T11:35:17;157.65;;;74.00;;
42866;SDS011;39461;40.948;73.006;2022-12-20T11:37:35;194.65;;;79.47;;
42866;SDS011;39461;40.948;73.006;2022-12-20T11:40:19;201.95;;;87.00;;
42866;SDS011;39461;40.948;73.006;2022-12-20T11:53:59;316.15;;;147.00;;
42866;SDS011;39461;40.948;73.006;2022-12-20T12:04:37;320.90;;;153.38;;
42866;SDS011;39461;40.948;73.006;2022-12-20T12:07:20;389.70;;;189.43;;
42866;SDS011;39461;40.948;73.006;2022-12-20T12:10:00;427.70;;;205.95;;
42866;SDS011;39461;40.948;73.006;2022-12-20T12:12:45;397.52;;;186.02;;
42866;SDS011;39461;40.948;73.006;2022-12-20T12:26:04;224.25;;;121.90;;
42866;SDS011;39461;40.948;73.006;2022-12-20T12:28:42;218.82;;;113.07;;
42866;SDS011;39461;40.948;73.006;2022-12-20T12:31:21;202.55;;;113.95;;
42866;SDS011;39461;40.948;73.006;2022-12-20T12:34:10;215.02;;;116.10;;
42866;SDS011;39461;40.948;73.006;2022-12-20T12:39:27;289.80;;;154.35;;
42866;SDS011;39461;40.948;73.006;2022-12-20T12:44:50;328.13;;;173.48;;
42866;SDS011;39461;40.948;73.006;2022-12-20T12:47:33;377.83;;;196.73;;
42866;SDS011;39461;40.948;73.006;2022-12-20T12:50:23;379.50;;;217.75;;
42866;SDS011;39461;40.948;73.006;2022-12-20T12:53:20;395.00;;;220.63;;
42866;SDS011;39461;40.948;73.006;2022-12-20T12:55:52;407.33;;;218.45;;
42866;SDS011;39461;40.948;73.006;2022-12-20T13:00:58;461.90;;;238.70;;
42866;SDS011;39461;40.948;73.006;2022-12-20T13:14:11;342.88;;;194.43;;
42866;SDS011;39461;40.948;73.006;2022-12-20T13:19:51;303.15;;;163.57;;
42866;SDS011;39461;40.948;73.006;2022-12-20T13:22:31;333.98;;;170.60;;
42866;SDS011;39461;40.948;73.006;2022-12-20T13:25:18;326.55;;;172.35;;
42866;SDS011;39461;40.948;73.006;2022-12-20T13:33:45;365.52;;;205.55;;
42866;SDS011;39461;40.948;73.006;2022-12-20T13:36:29;364.85;;;202.95;;
42866;SDS011;39461;40.948;73.006;2022-12-20T13:39:37;356.25;;;198.43;;
42866;SDS011;39461;40.948;73.006;2022-12-20T13:42:16;314.45;;;175.68;;
42866;SDS011;39461;40.948;73.006;2022-12-20T13:44:53;310.88;;;165.63;;
42866;SDS011;39461;40.948;73.006;2022-12-20T13:53:16;288.30;;;156.00;;
42866;SDS011;39461;40.948;73.006;2022-12-20T13:55:49;285.85;;;152.95;;
42866;SDS011;39461;40.948;73.006;2022-12-20T13:58:27;281.67;;;154.35;;
42866;SDS011;39461;40.948;73.006;2022-12-20T14:01:10;274.90;;;148.57;;
42866;SDS011;39461;40.948;73.006;2022-12-20T14:03:44;292.77;;;161.48;;
42866;SDS011;39461;40.948;73.006;2022-12-20T14:06:23;280.35;;;153.05;;
42866;SDS011;39461;40.948;73.006;2022-12-20T14:08:59;252.15;;;135.95;;
42866;SDS011;39461;40.948;73.006;2022-12-20T14:11:45;238.77;;;134.27;;
42866;SDS011;39461;40.948;73.006;2022-12-20T14:14:20;244.02;;;126.20;;
42866;SDS011;39461;40.948;73.006;2022-12-20T14:16:55;253.75;;;132.57;;
42866;SDS011;39461;40.948;73.006;2022-12-20T14:19:28;287.83;;;151.73;;
42866;SDS011;39461;40.948;73.006;2022-12-20T14:22:01;296.60;;;156.23;;
42866;SDS011;39461;40.948;73.006;2022-12-20T14:24:40;258.75;;;138.35;;
42866;SDS011;39461;40.948;73.006;2022-12-20T14:27:16;245.05;;;129.50;;
42866;SDS011;39461;40.948;73.006;2022-12-20T14:29:51;215.00;;;120.30;;
42866;SDS011;39461;40.948;73.006;2022-12-20T14:32:26;202.20;;;113.28;;
42866;SDS011;39461;40.948;73.006;2022-12-20T14:35:01;202.25;;;108.05;;
42866;SDS011;39461;40.948;73.006;2022-12-20T14:37:35;201.50;;;113.78;;
42866;SDS011;39461;40.948;73.006;2022-12-20T14:40:15;215.80;;;114.90;;
42866;SDS011;39461;40.948;73.006;2022-12-20T14:42:57;199.75;;;108.85;;
42866;SDS011;39461;40.948;73.006;2022-12-20T14:45:47;202.73;;;110.00;;
42866;SDS011;39461;40.948;73.006;2022-12-20T14:48:24;212.38;;;108.95;;
42866;SDS011;39461;40.948;73.006;2022-12-20T14:50:58;210.82;;;110.15;;
42866;SDS011;39461;40.948;73.006;2022-12-20T14:53:34;219.23;;;114.82;;
42866;SDS011;39461;40.948;73.006;2022-12-20T14:56:12;235.20;;;122.53;;
42866;SDS011;39461;40.948;73.006;2022-12-20T14:58:41;228.98;;;119.75;;
42866;SDS011;39461;40.948;73.006;2022-12-20T15:01:20;274.95;;;121.50;;
42866;SDS011;39461;40.948;73.006;2022-12-20T15:03:57;222.77;;;113.82;;
42866;SDS011;39461;40.948;73.006;2022-12-20T15:06:36;223.38;;;116.43;;
42866;SDS011;39461;40.948;73.006;2022-12-20T15:09:15;243.88;;;136.48;;
42866;SDS011;39461;40.948;73.006;2022-12-20T15:11:48;227.23;;;124.80;;
42866;SDS011;39461;40.948;73.006;2022-12-20T15:17:22;241.80;;;128.57;;
42866;SDS011;39461;40.948;73.006;2022-12-20T15:19:58;253.80;;;131.25;;
42866;SDS011;39461;40.948;73.006;2022-12-20T15:22:33;245.35;;;130.18;;
42866;SDS011;39461;40.948;73.006;2022-12-20T15:28:20;244.93;;;125.15;;
42866;SDS011;39461;40.948;73.006;2022-12-20T15:30:56;240.65;;;125.55;;
42866;SDS011;39461;40.948;73.006;2022-12-20T15:33:36;253.20;;;128.13;;
42866;SDS011;39461;40.948;73.006;2022-12-20T15:36:22;237.90;;;121.13;;
42866;SDS011;39461;40.948;73.006;2022-12-20T15:38:58;238.30;;;124.78;;
42866;SDS011;39461;40.948;73.006;2022-12-20T15:41:34;220.50;;;114.80;;
42866;SDS011;39461;40.948;73.006;2022-12-20T15:44:41;220.43;;;113.03;;
42866;SDS011;39461;40.948;73.006;2022-12-20T15:47:13;210.93;;;104.18;;
42866;SDS011;39461;40.948;73.006;2022-12-20T15:49:49;198.93;;;103.25;;
42866;SDS011;39461;40.948;73.006;2022-12-20T15:52:23;181.57;;;93.82;;
42866;SDS011;39461;40.948;73.006;2022-12-20T15:54:57;176.95;;;95.65;;
42866;SDS011;39461;40.948;73.006;2022-12-20T15:57:30;193.18;;;99.05;;
42866;SDS011;39461;40.948;73.006;2022-12-20T16:00:03;189.10;;;95.07;;
42866;SDS011;39461;40.948;73.006;2022-12-20T16:02:39;204.27;;;107.40;;
42866;SDS011;39461;40.948;73.006;2022-12-20T16:05:14;233.27;;;122.90;;
42866;SDS011;39461;40.948;73.006;2022-12-20T16:07:49;226.07;;;115.50;;
42866;SDS011;39461;40.948;73.006;2022-12-20T16:10:22;216.93;;;113.40;;
42866;SDS011;39461;40.948;73.006;2022-12-20T16:12:55;203.18;;;103.40;;
42866;SDS011;39461;40.948;73.006;2022-12-20T16:15:31;195.20;;;101.00;;
42866;SDS011;39461;40.948;73.006;2022-12-20T16:18:05;213.10;;;105.97;;
42866;SDS011;39461;40.948;73.006;2022-12-20T16:20:38;173.73;;;89.20;;
42866;SDS011;39461;40.948;73.006;2022-12-20T16:23:19;146.95;;;77.80;;
42866;SDS011;39461;40.948;73.006;2022-12-20T16:25:56;150.18;;;77.03;;
42866;SDS011;39461;40.948;73.006;2022-12-20T16:28:30;144.65;;;73.97;;
42866;SDS011;39461;40.948;73.006;2022-12-20T16:33:52;155.23;;;77.68;;
42866;SDS011;39461;40.948;73.006;2022-12-20T16:36:23;169.13;;;82.30;;
42866;SDS011;39461;40.948;73.006;2022-12-20T16:38:58;145.27;;;75.88;;
42866;SDS011;39461;40.948;73.006;2022-12-20T16:41:33;131.43;;;72.15;;
42866;SDS011;39461;40.948;73.006;2022-12-20T16:44:14;130.27;;;65.50;;
42866;SDS011;39461;40.948;73.006;2022-12-20T16:46:54;110.43;;;57.70;;
42866;SDS011;39461;40.948;73.006;2022-12-20T16:49:29;102.80;;;51.28;;
42866;SDS011;39461;40.948;73.006;2022-12-20T16:52:08;103.43;;;51.83;;
42866;SDS011;39461;40.948;73.006;2022-12-20T16:54:45;92.57;;;48.28;;
42866;SDS011;39461;40.948;73.006;2022-12-20T16:57:24;80.80;;;43.33;;
42866;SDS011;39461;40.948;73.006;2022-12-20T16:59:51;77.97;;;39.22;;
42866;SDS011;39461;40.948;73.006;2022-12-20T17:02:27;72.57;;;37.42;;
42866;SDS011;39461;40.948;73.006;2022-12-20T17:08:02;71.30;;;37.10;;
42866;SDS011;39461;40.948;73.006;2022-12-20T17:10:39;79.15;;;41.83;;
42866;SDS011;39461;40.948;73.006;2022-12-20T17:13:16;93.47;;;46.95;;
42866;SDS011;39461;40.948;73.006;2022-12-20T17:15:49;76.85;;;38.88;;
42866;SDS011;39461;40.948;73.006;2022-12-20T17:18:24;67.05;;;33.47;;
42866;SDS011;39461;40.948;73.006;2022-12-20T17:21:02;67.55;;;32.60;;
42866;SDS011;39461;40.948;73.006;2022-12-20T17:23:38;69.63;;;34.13;;
42866;SDS011;39461;40.948;73.006;2022-12-20T17:26:14;73.28;;;34.40;;
42866;SDS011;39461;40.948;73.006;2022-12-20T17:28:48;77.72;;;35.72;;
42866;SDS011;39461;40.948;73.006;2022-12-20T17:31:31;77.07;;;37.45;;
42866;SDS011;39461;40.948;73.006;2022-12-20T17:36:48;64.00;;;33.03;;
42866;SDS011;39461;40.948;73.006;2022-12-20T17:39:24;65.85;;;32.97;;
42866;SDS011;39461;40.948;73.006;2022-12-20T17:41:59;60.70;;;30.50;;
42866;SDS011;39461;40.948;73.006;2022-12-20T17:44:34;59.78;;;31.75;;
42866;SDS011;39461;40.948;73.006;2022-12-20T17:47:09;55.33;;;29.73;;
42866;SDS011;39461;40.948;73.006;2022-12-20T17:49:45;67.13;;;32.97;;
42866;SDS011;39461;40.948;73.006;2022-12-20T17:52:20;81.18;;;38.92;;
42866;SDS011;39461;40.948;73.006;2022-12-20T17:54:55;91.50;;;42.92;;
42866;SDS011;39461;40.948;73.006;2022-12-20T17:57:30;87.53;;;40.33;;
42866;SDS011;39461;40.948;73.006;2022-12-20T18:00:05;80.32;;;35.30;;
42866;SDS011;39461;40.948;73.006;2022-12-20T18:02:43;75.20;;;34.30;;
42866;SDS011;39461;40.948;73.006;2022-12-20T18:05:19;72.15;;;34.72;;
42866;SDS011;39461;40.948;73.006;2022-12-20T18:07:56;75.18;;;33.53;;
42866;SDS011;39461;40.948;73.006;2022-12-20T18:10:31;72.72;;;34.75;;
42866;SDS011;39461;40.948;73.006;2022-12-20T18:13:07;70.68;;;34.95;;
42866;SDS011;39461;40.948;73.006;2022-12-20T18:18:39;65.18;;;30.60;;
42866;SDS011;39461;40.948;73.006;2022-12-20T18:21:13;52.50;;;28.42;;
42866;SDS011;39461;40.948;73.006;2022-12-20T18:23:51;58.08;;;28.33;;
42866;SDS011;39461;40.948;73.006;2022-12-20T18:26:30;62.15;;;29.88;;
42866;SDS011;39461;40.948;73.006;2022-12-20T18:29:03;63.00;;;28.63;;
42866;SDS011;39461;40.948;73.006;2022-12-20T18:31:37;64.50;;;29.50;;
42866;SDS011;39461;40.948;73.006;2022-12-20T18:34:10;69.50;;;30.33;;
42866;SDS011;39461;40.948;73.006;2022-12-20T18:36:45;67.78;;;31.50;;
42866;SDS011;39461;40.948;73.006;2022-12-20T18:39:20;70.07;;;34.17;;
42866;SDS011;39461;40.948;73.006;2022-12-20T18:41:53;75.30;;;34.72;;
42866;SDS011;39461;40.948;73.006;2022-12-20T18:44:26;74.15;;;32.55;;
42866;SDS011;39461;40.948;73.006;2022-12-20T18:47:02;68.93;;;31.42;;
42866;SDS011;39461;40.948;73.006;2022-12-20T18:49:37;62.70;;;30.70;;
42866;SDS011;39461;40.948;73.006;2022-12-20T18:52:10;66.60;;;29.95;;
42866;SDS011;39461;40.948;73.006;2022-12-20T18:54:43;55.03;;;26.90;;